sensor_id;sensor_type;location;lat;lon;timestamp;temperature;humidity
20698;DHT22;10508;50.956;4.640;2024-03-17T00:01:17;8.60;99.90
20698;DHT22;10508;50.956;4.640;2024-03-17T00:03:43;8.60;99.90
20698;DHT22;10508;50.956;4.640;2024-03-17T00:06:08;8.50;99.90
20698;DHT22;10508;50.956;4.640;2024-03-17T00:08:35;8.60;99.90
20698;DHT22;10508;50.956;4.640;2024-03-17T00:11:01;8.60;99.90
20698;DHT22;10508;50.956;4.640;2024-03-17T00:13:26;8.50;99.90
20698;DHT22;10508;50.956;4.640;2024-03-17T00:15:52;8.50;99.90
20698;DHT22;10508;50.956;4.640;2024-03-17T00:18:18;8.60;99.90
20698;DHT22;10508;50.956;4.640;2024-03-17T00:20:44;8.60;99.90
20698;DHT22;10508;50.956;4.640;2024-03-17T00:23:10;8.60;99.90
20698;DHT22;10508;50.956;4.640;2024-03-17T00:25:38;8.60;99.90
20698;DHT22;10508;50.956;4.640;2024-03-17T00:28:04;8.50;99.90
20698;DHT22;10508;50.956;4.640;2024-03-17T00:30:30;8.40;99.90
20698;DHT22;10508;50.956;4.640;2024-03-17T00:32:57;8.50;99.90
20698;DHT22;10508;50.956;4.640;2024-03-17T00:35:26;8.40;99.90
20698;DHT22;10508;50.956;4.640;2024-03-17T00:37:51;8.40;99.90
20698;DHT22;10508;50.956;4.640;2024-03-17T00:40:19;8.40;99.90
20698;DHT22;10508;50.956;4.640;2024-03-17T00:42:45;8.40;99.90
20698;DHT22;10508;50.956;4.640;2024-03-17T00:45:11;8.40;99.90
20698;DHT22;10508;50.956;4.640;2024-03-17T00:47:38;8.40;99.90
20698;DHT22;10508;50.956;4.640;2024-03-17T00:50:04;8.40;99.90
20698;DHT22;10508;50.956;4.640;2024-03-17T00:52:32;8.40;99.90
20698;DHT22;10508;50.956;4.640;2024-03-17T00:54:57;8.40;99.90
20698;DHT22;10508;50.956;4.640;2024-03-17T00:57:23;8.50;99.90
20698;DHT22;10508;50.956;4.640;2024-03-17T00:59:50;8.50;99.90
20698;DHT22;10508;50.956;4.640;2024-03-17T01:02:16;8.60;99.90
20698;DHT22;10508;50.956;4.640;2024-03-17T01:04:45;8.50;99.90
20698;DHT22;10508;50.956;4.640;2024-03-17T01:07:12;8.50;99.90
20698;DHT22;10508;50.956;4.640;2024-03-17T01:09:38;8.50;99.90
20698;DHT22;10508;50.956;4.640;2024-03-17T01:12:04;8.50;99.90
20698;DHT22;10508;50.956;4.640;2024-03-17T01:14:31;8.50;99.90
20698;DHT22;10508;50.956;4.640;2024-03-17T01:16:58;8.60;99.90
20698;DHT22;10508;50.956;4.640;2024-03-17T01:19:24;8.60;99.90
20698;DHT22;10508;50.956;4.640;2024-03-17T01:21:51;8.60;99.90
20698;DHT22;10508;50.956;4.640;2024-03-17T01:24:17;8.60;99.90
20698;DHT22;10508;50.956;4.640;2024-03-17T01:26:44;8.50;99.90
20698;DHT22;10508;50.956;4.640;2024-03-17T01:29:11;8.60;99.90
20698;DHT22;10508;50.956;4.640;2024-03-17T01:31:37;8.60;99.90
20698;DHT22;10508;50.956;4.640;2024-03-17T01:34:02;8.60;99.90
20698;DHT22;10508;50.956;4.640;2024-03-17T01:36:28;8.60;99.90
20698;DHT22;10508;50.956;4.640;2024-03-17T01:38:54;8.50;99.90
20698;DHT22;10508;50.956;4.640;2024-03-17T01:41:20;8.50;99.90
20698;DHT22;10508;50.956;4.640;2024-03-17T01:43:46;8.60;99.90
20698;DHT22;10508;50.956;4.640;2024-03-17T01:46:14;8.60;99.90
20698;DHT22;10508;50.956;4.640;2024-03-17T01:48:40;8.50;99.90
20698;DHT22;10508;50.956;4.640;2024-03-17T01:51:08;8.50;99.90
20698;DHT22;10508;50.956;4.640;2024-03-17T01:53:35;8.50;99.90
20698;DHT22;10508;50.956;4.640;2024-03-17T01:56:00;8.50;99.90
20698;DHT22;10508;50.956;4.640;2024-03-17T01:58:30;8.50;99.90
20698;DHT22;10508;50.956;4.640;2024-03-17T02:00:56;8.50;99.90
20698;DHT22;10508;50.956;4.640;2024-03-17T02:03:22;8.50;99.90
20698;DHT22;10508;50.956;4.640;2024-03-17T02:05:48;8.50;99.90
20698;DHT22;10508;50.956;4.640;2024-03-17T02:08:14;8.50;99.90
20698;DHT22;10508;50.956;4.640;2024-03-17T02:10:40;8.50;99.90
20698;DHT22;10508;50.956;4.640;2024-03-17T02:13:24;8.60;99.90
20698;DHT22;10508;50.956;4.640;2024-03-17T02:15:50;8.60;99.90
20698;DHT22;10508;50.956;4.640;2024-03-17T02:18:16;8.50;99.90
20698;DHT22;10508;50.956;4.640;2024-03-17T02:20:41;8.50;99.90
20698;DHT22;10508;50.956;4.640;2024-03-17T02:23:26;8.50;99.90
20698;DHT22;10508;50.956;4.640;2024-03-17T02:25:53;8.50;99.90
20698;DHT22;10508;50.956;4.640;2024-03-17T02:28:19;8.50;99.90
20698;DHT22;10508;50.956;4.640;2024-03-17T02:30:44;8.50;99.90
20698;DHT22;10508;50.956;4.640;2024-03-17T02:33:10;8.40;99.90
20698;DHT22;10508;50.956;4.640;2024-03-17T02:35:36;8.50;99.90
20698;DHT22;10508;50.956;4.640;2024-03-17T02:38:02;8.50;99.90
20698;DHT22;10508;50.956;4.640;2024-03-17T02:40:28;8.40;99.90
20698;DHT22;10508;50.956;4.640;2024-03-17T02:42:54;8.40;99.90
20698;DHT22;10508;50.956;4.640;2024-03-17T02:45:20;8.30;99.90
20698;DHT22;10508;50.956;4.640;2024-03-17T02:47:46;8.30;99.90
20698;DHT22;10508;50.956;4.640;2024-03-17T02:50:12;8.30;99.90
20698;DHT22;10508;50.956;4.640;2024-03-17T02:52:38;8.30;99.90
20698;DHT22;10508;50.956;4.640;2024-03-17T02:55:05;8.20;99.90
20698;DHT22;10508;50.956;4.640;2024-03-17T02:57:31;8.20;99.90
20698;DHT22;10508;50.956;4.640;2024-03-17T02:59:58;8.20;99.90
20698;DHT22;10508;50.956;4.640;2024-03-17T03:02:24;8.10;99.90
20698;DHT22;10508;50.956;4.640;2024-03-17T03:04:50;8.20;99.90
20698;DHT22;10508;50.956;4.640;2024-03-17T03:07:16;8.20;99.90
20698;DHT22;10508;50.956;4.640;2024-03-17T03:09:41;8.20;99.90
20698;DHT22;10508;50.956;4.640;2024-03-17T03:12:07;8.20;99.90
20698;DHT22;10508;50.956;4.640;2024-03-17T03:14:33;8.20;99.90
20698;DHT22;10508;50.956;4.640;2024-03-17T03:16:59;8.20;99.90
20698;DHT22;10508;50.956;4.640;2024-03-17T03:19:28;8.20;99.90
20698;DHT22;10508;50.956;4.640;2024-03-17T03:21:55;8.20;99.90
20698;DHT22;10508;50.956;4.640;2024-03-17T03:24:21;8.20;99.90
20698;DHT22;10508;50.956;4.640;2024-03-17T03:26:47;8.20;99.90
20698;DHT22;10508;50.956;4.640;2024-03-17T03:29:14;8.20;99.90
20698;DHT22;10508;50.956;4.640;2024-03-17T03:31:40;8.20;99.90
20698;DHT22;10508;50.956;4.640;2024-03-17T03:34:07;8.30;99.90
20698;DHT22;10508;50.956;4.640;2024-03-17T03:36:38;8.30;99.90
20698;DHT22;10508;50.956;4.640;2024-03-17T03:39:04;8.40;99.90
20698;DHT22;10508;50.956;4.640;2024-03-17T03:41:31;8.40;99.90
20698;DHT22;10508;50.956;4.640;2024-03-17T03:43:58;8.40;99.90
20698;DHT22;10508;50.956;4.640;2024-03-17T03:46:24;8.50;99.90
20698;DHT22;10508;50.956;4.640;2024-03-17T03:48:49;8.50;99.90
20698;DHT22;10508;50.956;4.640;2024-03-17T03:51:15;8.50;99.90
20698;DHT22;10508;50.956;4.640;2024-03-17T03:53:41;8.50;99.90
20698;DHT22;10508;50.956;4.640;2024-03-17T03:56:08;8.50;99.90
20698;DHT22;10508;50.956;4.640;2024-03-17T03:58:38;8.50;99.90
20698;DHT22;10508;50.956;4.640;2024-03-17T04:01:08;8.60;99.90
20698;DHT22;10508;50.956;4.640;2024-03-17T04:03:35;8.50;99.90
20698;DHT22;10508;50.956;4.640;2024-03-17T04:06:08;8.50;99.90
20698;DHT22;10508;50.956;4.640;2024-03-17T04:08:35;8.60;99.90
20698;DHT22;10508;50.956;4.640;2024-03-17T04:11:02;8.50;99.90
20698;DHT22;10508;50.956;4.640;2024-03-17T04:13:31;8.50;99.90
20698;DHT22;10508;50.956;4.640;2024-03-17T04:15:57;8.50;99.90
20698;DHT22;10508;50.956;4.640;2024-03-17T04:18:27;8.50;99.90
20698;DHT22;10508;50.956;4.640;2024-03-17T04:20:56;8.50;99.90
20698;DHT22;10508;50.956;4.640;2024-03-17T04:23:23;8.50;99.90
20698;DHT22;10508;50.956;4.640;2024-03-17T04:25:52;8.50;99.90
20698;DHT22;10508;50.956;4.640;2024-03-17T04:28:18;8.50;99.90
20698;DHT22;10508;50.956;4.640;2024-03-17T04:30:44;8.50;99.90
20698;DHT22;10508;50.956;4.640;2024-03-17T04:33:12;8.50;99.90
20698;DHT22;10508;50.956;4.640;2024-03-17T04:35:38;8.40;99.90
20698;DHT22;10508;50.956;4.640;2024-03-17T04:38:04;8.40;99.90
20698;DHT22;10508;50.956;4.640;2024-03-17T04:40:32;8.30;99.90
20698;DHT22;10508;50.956;4.640;2024-03-17T04:42:57;8.30;99.90
20698;DHT22;10508;50.956;4.640;2024-03-17T04:45:23;8.20;99.90
20698;DHT22;10508;50.956;4.640;2024-03-17T04:47:49;8.20;99.90
20698;DHT22;10508;50.956;4.640;2024-03-17T04:50:14;8.20;99.90
20698;DHT22;10508;50.956;4.640;2024-03-17T04:52:41;8.20;99.90
20698;DHT22;10508;50.956;4.640;2024-03-17T04:55:07;8.20;99.90
20698;DHT22;10508;50.956;4.640;2024-03-17T04:57:32;8.20;99.90
20698;DHT22;10508;50.956;4.640;2024-03-17T04:59:58;8.20;99.90
20698;DHT22;10508;50.956;4.640;2024-03-17T05:02:24;8.10;99.90
20698;DHT22;10508;50.956;4.640;2024-03-17T05:04:50;8.10;99.90
20698;DHT22;10508;50.956;4.640;2024-03-17T05:07:16;8.00;99.90
20698;DHT22;10508;50.956;4.640;2024-03-17T05:09:42;7.90;99.90
20698;DHT22;10508;50.956;4.640;2024-03-17T05:12:09;7.80;99.90
20698;DHT22;10508;50.956;4.640;2024-03-17T05:14:35;7.90;99.90
20698;DHT22;10508;50.956;4.640;2024-03-17T05:17:01;7.90;99.90
20698;DHT22;10508;50.956;4.640;2024-03-17T05:19:27;7.90;99.90
20698;DHT22;10508;50.956;4.640;2024-03-17T05:21:53;7.90;99.90
20698;DHT22;10508;50.956;4.640;2024-03-17T05:24:19;7.90;99.90
20698;DHT22;10508;50.956;4.640;2024-03-17T05:26:45;7.90;99.90
20698;DHT22;10508;50.956;4.640;2024-03-17T05:29:13;8.00;99.90
20698;DHT22;10508;50.956;4.640;2024-03-17T05:31:39;8.00;99.90
20698;DHT22;10508;50.956;4.640;2024-03-17T05:34:06;8.00;99.90
20698;DHT22;10508;50.956;4.640;2024-03-17T05:36:32;8.00;99.90
20698;DHT22;10508;50.956;4.640;2024-03-17T05:38:59;8.00;99.90
20698;DHT22;10508;50.956;4.640;2024-03-17T05:41:25;8.00;99.90
20698;DHT22;10508;50.956;4.640;2024-03-17T05:43:51;8.00;99.90
20698;DHT22;10508;50.956;4.640;2024-03-17T05:46:18;8.10;99.90
20698;DHT22;10508;50.956;4.640;2024-03-17T05:48:43;8.00;99.90
20698;DHT22;10508;50.956;4.640;2024-03-17T05:51:10;8.10;99.90
20698;DHT22;10508;50.956;4.640;2024-03-17T05:53:37;8.10;99.90
20698;DHT22;10508;50.956;4.640;2024-03-17T05:56:05;8.20;99.90
20698;DHT22;10508;50.956;4.640;2024-03-17T05:58:33;8.30;99.90
20698;DHT22;10508;50.956;4.640;2024-03-17T06:01:02;8.30;99.90
20698;DHT22;10508;50.956;4.640;2024-03-17T06:03:28;8.30;99.90
20698;DHT22;10508;50.956;4.640;2024-03-17T06:05:59;8.30;99.90
20698;DHT22;10508;50.956;4.640;2024-03-17T06:08:25;8.30;99.90
20698;DHT22;10508;50.956;4.640;2024-03-17T06:10:51;8.30;99.90
20698;DHT22;10508;50.956;4.640;2024-03-17T06:13:16;8.20;99.90
20698;DHT22;10508;50.956;4.640;2024-03-17T06:15:45;8.20;99.90
20698;DHT22;10508;50.956;4.640;2024-03-17T06:18:14;8.20;99.90
20698;DHT22;10508;50.956;4.640;2024-03-17T06:20:46;8.10;99.90
20698;DHT22;10508;50.956;4.640;2024-03-17T06:23:16;8.10;99.90
20698;DHT22;10508;50.956;4.640;2024-03-17T06:25:46;8.20;99.90
20698;DHT22;10508;50.956;4.640;2024-03-17T06:28:14;8.30;99.90
20698;DHT22;10508;50.956;4.640;2024-03-17T06:30:44;8.40;99.90
20698;DHT22;10508;50.956;4.640;2024-03-17T06:33:16;8.50;99.90
20698;DHT22;10508;50.956;4.640;2024-03-17T06:35:44;8.50;99.90
20698;DHT22;10508;50.956;4.640;2024-03-17T06:38:10;8.50;99.90
20698;DHT22;10508;50.956;4.640;2024-03-17T06:40:51;8.50;99.90
20698;DHT22;10508;50.956;4.640;2024-03-17T06:43:17;8.60;99.90
20698;DHT22;10508;50.956;4.640;2024-03-17T06:45:59;8.70;99.90
20698;DHT22;10508;50.956;4.640;2024-03-17T06:48:26;8.70;99.90
20698;DHT22;10508;50.956;4.640;2024-03-17T06:50:53;8.80;99.90
20698;DHT22;10508;50.956;4.640;2024-03-17T06:53:23;8.90;99.90
20698;DHT22;10508;50.956;4.640;2024-03-17T06:55:57;8.90;99.90
20698;DHT22;10508;50.956;4.640;2024-03-17T06:58:24;9.00;99.90
20698;DHT22;10508;50.956;4.640;2024-03-17T07:00:59;8.90;99.90
20698;DHT22;10508;50.956;4.640;2024-03-17T07:03:27;9.00;99.90
20698;DHT22;10508;50.956;4.640;2024-03-17T07:05:58;9.00;99.90
20698;DHT22;10508;50.956;4.640;2024-03-17T07:08:24;9.10;99.90
20698;DHT22;10508;50.956;4.640;2024-03-17T07:11:01;9.00;99.90
20698;DHT22;10508;50.956;4.640;2024-03-17T07:13:33;9.10;99.90
20698;DHT22;10508;50.956;4.640;2024-03-17T07:16:02;9.10;99.90
20698;DHT22;10508;50.956;4.640;2024-03-17T07:18:29;9.20;99.90
20698;DHT22;10508;50.956;4.640;2024-03-17T07:21:00;9.20;99.90
20698;DHT22;10508;50.956;4.640;2024-03-17T07:23:26;9.30;99.90
20698;DHT22;10508;50.956;4.640;2024-03-17T07:25:56;9.30;99.90
20698;DHT22;10508;50.956;4.640;2024-03-17T07:28:22;9.40;99.90
20698;DHT22;10508;50.956;4.640;2024-03-17T07:30:50;9.40;99.90
20698;DHT22;10508;50.956;4.640;2024-03-17T07:33:16;9.40;99.90
20698;DHT22;10508;50.956;4.640;2024-03-17T07:35:52;9.40;99.90
20698;DHT22;10508;50.956;4.640;2024-03-17T07:38:18;9.50;99.90
20698;DHT22;10508;50.956;4.640;2024-03-17T07:40:45;9.50;99.90
20698;DHT22;10508;50.956;4.640;2024-03-17T07:43:11;9.50;99.90
20698;DHT22;10508;50.956;4.640;2024-03-17T07:45:37;9.60;99.90
20698;DHT22;10508;50.956;4.640;2024-03-17T07:48:03;9.60;99.90
20698;DHT22;10508;50.956;4.640;2024-03-17T07:50:29;9.70;99.90
20698;DHT22;10508;50.956;4.640;2024-03-17T07:52:55;9.70;99.90
20698;DHT22;10508;50.956;4.640;2024-03-17T07:55:23;9.70;99.90
20698;DHT22;10508;50.956;4.640;2024-03-17T07:57:49;9.80;99.90
20698;DHT22;10508;50.956;4.640;2024-03-17T08:00:14;9.80;99.90
20698;DHT22;10508;50.956;4.640;2024-03-17T08:02:46;9.90;99.90
20698;DHT22;10508;50.956;4.640;2024-03-17T08:05:12;10.00;99.90
20698;DHT22;10508;50.956;4.640;2024-03-17T08:07:39;10.10;99.90
20698;DHT22;10508;50.956;4.640;2024-03-17T08:10:05;10.20;99.90
20698;DHT22;10508;50.956;4.640;2024-03-17T08:12:31;10.30;99.90
20698;DHT22;10508;50.956;4.640;2024-03-17T08:14:57;10.30;99.90
20698;DHT22;10508;50.956;4.640;2024-03-17T08:17:22;10.40;99.90
20698;DHT22;10508;50.956;4.640;2024-03-17T08:19:48;10.50;99.90
20698;DHT22;10508;50.956;4.640;2024-03-17T08:22:14;10.60;99.90
20698;DHT22;10508;50.956;4.640;2024-03-17T08:24:40;10.70;99.90
20698;DHT22;10508;50.956;4.640;2024-03-17T08:27:06;10.90;99.90
20698;DHT22;10508;50.956;4.640;2024-03-17T08:29:32;11.00;99.90
20698;DHT22;10508;50.956;4.640;2024-03-17T08:31:59;11.20;99.90
20698;DHT22;10508;50.956;4.640;2024-03-17T08:34:24;11.20;99.90
20698;DHT22;10508;50.956;4.640;2024-03-17T08:36:51;11.40;99.90
20698;DHT22;10508;50.956;4.640;2024-03-17T08:39:16;11.50;99.90
20698;DHT22;10508;50.956;4.640;2024-03-17T08:41:42;11.50;99.90
20698;DHT22;10508;50.956;4.640;2024-03-17T08:44:10;11.60;99.90
20698;DHT22;10508;50.956;4.640;2024-03-17T08:46:36;11.70;99.90
20698;DHT22;10508;50.956;4.640;2024-03-17T08:49:01;11.80;99.90
20698;DHT22;10508;50.956;4.640;2024-03-17T08:51:27;11.90;99.90
20698;DHT22;10508;50.956;4.640;2024-03-17T08:53:54;11.90;99.90
20698;DHT22;10508;50.956;4.640;2024-03-17T08:56:25;11.90;99.90
20698;DHT22;10508;50.956;4.640;2024-03-17T08:58:51;12.00;99.90
20698;DHT22;10508;50.956;4.640;2024-03-17T09:01:17;12.00;99.90
20698;DHT22;10508;50.956;4.640;2024-03-17T09:03:42;12.00;99.90
20698;DHT22;10508;50.956;4.640;2024-03-17T09:06:16;12.00;99.90
20698;DHT22;10508;50.956;4.640;2024-03-17T09:08:42;12.10;99.90
20698;DHT22;10508;50.956;4.640;2024-03-17T09:11:13;12.10;99.90
20698;DHT22;10508;50.956;4.640;2024-03-17T09:13:39;12.20;99.90
20698;DHT22;10508;50.956;4.640;2024-03-17T09:16:05;12.20;99.90
20698;DHT22;10508;50.956;4.640;2024-03-17T09:18:32;12.00;99.90
20698;DHT22;10508;50.956;4.640;2024-03-17T09:21:03;12.60;99.90
20698;DHT22;10508;50.956;4.640;2024-03-17T09:23:30;12.40;99.90
20698;DHT22;10508;50.956;4.640;2024-03-17T09:26:03;12.40;99.90
20698;DHT22;10508;50.956;4.640;2024-03-17T09:28:31;12.40;99.90
20698;DHT22;10508;50.956;4.640;2024-03-17T09:30:57;12.40;99.90
20698;DHT22;10508;50.956;4.640;2024-03-17T09:33:25;12.30;99.90
20698;DHT22;10508;50.956;4.640;2024-03-17T09:35:55;12.40;99.90
20698;DHT22;10508;50.956;4.640;2024-03-17T09:38:22;12.40;99.90
20698;DHT22;10508;50.956;4.640;2024-03-17T09:40:48;12.30;99.90
20698;DHT22;10508;50.956;4.640;2024-03-17T09:43:25;12.30;99.90
20698;DHT22;10508;50.956;4.640;2024-03-17T09:45:51;12.30;99.90
20698;DHT22;10508;50.956;4.640;2024-03-17T09:48:26;12.20;99.90
20698;DHT22;10508;50.956;4.640;2024-03-17T09:50:55;12.20;99.90
20698;DHT22;10508;50.956;4.640;2024-03-17T09:53:26;12.20;99.90
20698;DHT22;10508;50.956;4.640;2024-03-17T09:56:00;12.20;99.90
20698;DHT22;10508;50.956;4.640;2024-03-17T09:58:27;12.30;99.90
20698;DHT22;10508;50.956;4.640;2024-03-17T10:00:52;12.20;99.90
20698;DHT22;10508;50.956;4.640;2024-03-17T10:06:07;12.20;99.90
20698;DHT22;10508;50.956;4.640;2024-03-17T10:08:33;12.30;99.90
20698;DHT22;10508;50.956;4.640;2024-03-17T10:11:02;12.30;99.90
20698;DHT22;10508;50.956;4.640;2024-03-17T10:13:28;12.30;99.90
20698;DHT22;10508;50.956;4.640;2024-03-17T10:15:54;12.40;99.90
20698;DHT22;10508;50.956;4.640;2024-03-17T10:18:23;12.40;99.90
20698;DHT22;10508;50.956;4.640;2024-03-17T10:20:49;12.40;99.90
20698;DHT22;10508;50.956;4.640;2024-03-17T10:23:22;12.30;99.90
20698;DHT22;10508;50.956;4.640;2024-03-17T10:25:48;12.40;99.90
20698;DHT22;10508;50.956;4.640;2024-03-17T10:28:16;12.50;99.90
20698;DHT22;10508;50.956;4.640;2024-03-17T10:30:59;12.60;99.90
20698;DHT22;10508;50.956;4.640;2024-03-17T10:33:26;12.70;99.90
20698;DHT22;10508;50.956;4.640;2024-03-17T10:35:59;12.70;99.90
20698;DHT22;10508;50.956;4.640;2024-03-17T10:38:28;12.90;99.90
20698;DHT22;10508;50.956;4.640;2024-03-17T10:40:54;12.90;99.90
20698;DHT22;10508;50.956;4.640;2024-03-17T10:43:23;13.00;99.90
20698;DHT22;10508;50.956;4.640;2024-03-17T10:45:52;13.10;99.90
20698;DHT22;10508;50.956;4.640;2024-03-17T10:48:21;13.10;99.90
20698;DHT22;10508;50.956;4.640;2024-03-17T10:50:50;13.00;99.90
20698;DHT22;10508;50.956;4.640;2024-03-17T10:53:20;13.10;99.90
20698;DHT22;10508;50.956;4.640;2024-03-17T10:56:03;13.10;99.90
20698;DHT22;10508;50.956;4.640;2024-03-17T10:58:38;13.20;99.90
20698;DHT22;10508;50.956;4.640;2024-03-17T11:01:13;13.30;99.90
20698;DHT22;10508;50.956;4.640;2024-03-17T11:03:39;13.30;99.90
20698;DHT22;10508;50.956;4.640;2024-03-17T11:06:06;13.40;99.90
20698;DHT22;10508;50.956;4.640;2024-03-17T11:08:34;13.40;99.90
20698;DHT22;10508;50.956;4.640;2024-03-17T11:11:01;13.40;99.90
20698;DHT22;10508;50.956;4.640;2024-03-17T11:13:30;13.50;99.90
20698;DHT22;10508;50.956;4.640;2024-03-17T11:15:57;13.40;99.90
20698;DHT22;10508;50.956;4.640;2024-03-17T11:21:00;13.40;99.90
20698;DHT22;10508;50.956;4.640;2024-03-17T11:23:58;13.50;99.90
20698;DHT22;10508;50.956;4.640;2024-03-17T11:26:29;13.50;99.90
20698;DHT22;10508;50.956;4.640;2024-03-17T11:28:55;13.50;99.90
20698;DHT22;10508;50.956;4.640;2024-03-17T11:31:38;13.50;99.90
20698;DHT22;10508;50.956;4.640;2024-03-17T11:36:51;13.60;99.90
20698;DHT22;10508;50.956;4.640;2024-03-17T11:39:19;13.60;99.90
20698;DHT22;10508;50.956;4.640;2024-03-17T11:41:51;13.70;99.90
20698;DHT22;10508;50.956;4.640;2024-03-17T11:44:24;13.80;99.90
20698;DHT22;10508;50.956;4.640;2024-03-17T11:46:59;13.90;99.90
20698;DHT22;10508;50.956;4.640;2024-03-17T11:52:00;14.30;99.90
20698;DHT22;10508;50.956;4.640;2024-03-17T11:54:36;14.40;99.90
20698;DHT22;10508;50.956;4.640;2024-03-17T11:57:07;14.50;99.90
20698;DHT22;10508;50.956;4.640;2024-03-17T11:59:33;14.60;99.90
20698;DHT22;10508;50.956;4.640;2024-03-17T12:02:00;14.80;99.90
20698;DHT22;10508;50.956;4.640;2024-03-17T12:04:26;14.90;99.90
20698;DHT22;10508;50.956;4.640;2024-03-17T12:06:54;15.10;99.90
20698;DHT22;10508;50.956;4.640;2024-03-17T12:09:24;15.10;99.90
20698;DHT22;10508;50.956;4.640;2024-03-17T12:12:02;15.20;99.90
20698;DHT22;10508;50.956;4.640;2024-03-17T12:14:30;15.40;99.90
20698;DHT22;10508;50.956;4.640;2024-03-17T12:16:57;15.50;99.90
20698;DHT22;10508;50.956;4.640;2024-03-17T12:19:24;15.60;99.90
20698;DHT22;10508;50.956;4.640;2024-03-17T12:21:52;15.90;99.90
20698;DHT22;10508;50.956;4.640;2024-03-17T12:24:20;16.20;99.90
20698;DHT22;10508;50.956;4.640;2024-03-17T12:26:50;16.10;99.90
20698;DHT22;10508;50.956;4.640;2024-03-17T12:31:53;16.00;99.90
20698;DHT22;10508;50.956;4.640;2024-03-17T12:34:21;15.80;99.90
20698;DHT22;10508;50.956;4.640;2024-03-17T12:36:48;15.70;99.90
20698;DHT22;10508;50.956;4.640;2024-03-17T12:39:25;15.80;99.90
20698;DHT22;10508;50.956;4.640;2024-03-17T12:42:13;16.10;99.90
20698;DHT22;10508;50.956;4.640;2024-03-17T12:44:47;15.60;99.90
20698;DHT22;10508;50.956;4.640;2024-03-17T12:47:17;15.50;99.90
20698;DHT22;10508;50.956;4.640;2024-03-17T12:49:48;15.40;99.90
20698;DHT22;10508;50.956;4.640;2024-03-17T12:52:18;15.30;99.90
20698;DHT22;10508;50.956;4.640;2024-03-17T12:54:45;15.50;99.90
20698;DHT22;10508;50.956;4.640;2024-03-17T12:57:41;15.70;99.90
20698;DHT22;10508;50.956;4.640;2024-03-17T13:00:25;15.90;99.90
20698;DHT22;10508;50.956;4.640;2024-03-17T13:03:04;15.80;99.90
20698;DHT22;10508;50.956;4.640;2024-03-17T13:05:31;15.80;99.90
20698;DHT22;10508;50.956;4.640;2024-03-17T13:07:57;15.60;99.90
20698;DHT22;10508;50.956;4.640;2024-03-17T13:10:25;15.70;99.90
20698;DHT22;10508;50.956;4.640;2024-03-17T13:13:01;15.70;99.90
20698;DHT22;10508;50.956;4.640;2024-03-17T13:15:27;15.70;99.90
20698;DHT22;10508;50.956;4.640;2024-03-17T13:17:57;15.70;99.90
20698;DHT22;10508;50.956;4.640;2024-03-17T13:20:23;15.70;99.90
20698;DHT22;10508;50.956;4.640;2024-03-17T13:22:49;15.80;99.90
20698;DHT22;10508;50.956;4.640;2024-03-17T13:25:17;15.80;99.90
20698;DHT22;10508;50.956;4.640;2024-03-17T13:27:47;15.80;99.90
20698;DHT22;10508;50.956;4.640;2024-03-17T13:30:17;15.90;99.90
20698;DHT22;10508;50.956;4.640;2024-03-17T13:32:43;15.80;99.90
20698;DHT22;10508;50.956;4.640;2024-03-17T13:35:18;15.70;99.90
20698;DHT22;10508;50.956;4.640;2024-03-17T13:37:45;15.60;99.90
20698;DHT22;10508;50.956;4.640;2024-03-17T13:40:15;15.60;99.90
20698;DHT22;10508;50.956;4.640;2024-03-17T13:42:43;15.60;99.90
20698;DHT22;10508;50.956;4.640;2024-03-17T13:45:13;15.60;99.90
20698;DHT22;10508;50.956;4.640;2024-03-17T13:47:40;15.60;99.90
20698;DHT22;10508;50.956;4.640;2024-03-17T13:50:06;15.60;99.90
20698;DHT22;10508;50.956;4.640;2024-03-17T13:52:39;15.60;99.90
20698;DHT22;10508;50.956;4.640;2024-03-17T13:55:16;15.60;99.90
20698;DHT22;10508;50.956;4.640;2024-03-17T13:57:53;15.60;99.90
20698;DHT22;10508;50.956;4.640;2024-03-17T14:00:21;15.60;99.90
20698;DHT22;10508;50.956;4.640;2024-03-17T14:02:48;15.60;99.90
20698;DHT22;10508;50.956;4.640;2024-03-17T14:05:16;15.60;99.90
20698;DHT22;10508;50.956;4.640;2024-03-17T14:07:43;15.60;99.90
20698;DHT22;10508;50.956;4.640;2024-03-17T14:10:11;15.60;99.90
20698;DHT22;10508;50.956;4.640;2024-03-17T14:12:37;15.50;99.90
20698;DHT22;10508;50.956;4.640;2024-03-17T14:15:05;15.60;99.90
20698;DHT22;10508;50.956;4.640;2024-03-17T14:17:31;15.50;99.90
20698;DHT22;10508;50.956;4.640;2024-03-17T14:19:57;15.50;99.90
20698;DHT22;10508;50.956;4.640;2024-03-17T14:22:22;15.50;99.90
20698;DHT22;10508;50.956;4.640;2024-03-17T14:24:48;15.40;99.90
20698;DHT22;10508;50.956;4.640;2024-03-17T14:27:15;15.30;99.90
20698;DHT22;10508;50.956;4.640;2024-03-17T14:29:43;15.30;99.90
20698;DHT22;10508;50.956;4.640;2024-03-17T14:32:08;15.30;99.90
20698;DHT22;10508;50.956;4.640;2024-03-17T14:34:34;15.30;99.90
20698;DHT22;10508;50.956;4.640;2024-03-17T14:37:02;15.40;99.90
20698;DHT22;10508;50.956;4.640;2024-03-17T14:39:32;15.30;99.90
20698;DHT22;10508;50.956;4.640;2024-03-17T14:41:57;15.30;99.90
20698;DHT22;10508;50.956;4.640;2024-03-17T14:44:23;15.30;99.90
20698;DHT22;10508;50.956;4.640;2024-03-17T14:46:50;15.20;99.90
20698;DHT22;10508;50.956;4.640;2024-03-17T14:49:25;15.20;99.90
20698;DHT22;10508;50.956;4.640;2024-03-17T14:51:52;15.20;99.90
20698;DHT22;10508;50.956;4.640;2024-03-17T14:54:18;15.10;99.90
20698;DHT22;10508;50.956;4.640;2024-03-17T14:56:44;15.10;99.90
20698;DHT22;10508;50.956;4.640;2024-03-17T14:59:09;15.10;99.90
20698;DHT22;10508;50.956;4.640;2024-03-17T15:01:37;15.00;99.90
20698;DHT22;10508;50.956;4.640;2024-03-17T15:04:12;15.00;99.90
20698;DHT22;10508;50.956;4.640;2024-03-17T15:06:39;14.90;99.90
20698;DHT22;10508;50.956;4.640;2024-03-17T15:09:04;14.90;99.90
20698;DHT22;10508;50.956;4.640;2024-03-17T15:11:30;14.90;99.90
20698;DHT22;10508;50.956;4.640;2024-03-17T15:13:56;14.80;99.90
20698;DHT22;10508;50.956;4.640;2024-03-17T15:16:22;14.80;99.90
20698;DHT22;10508;50.956;4.640;2024-03-17T15:18:49;14.80;99.90
20698;DHT22;10508;50.956;4.640;2024-03-17T15:21:16;14.90;99.90
20698;DHT22;10508;50.956;4.640;2024-03-17T15:23:41;14.80;99.90
20698;DHT22;10508;50.956;4.640;2024-03-17T15:26:07;14.80;99.90
20698;DHT22;10508;50.956;4.640;2024-03-17T15:28:43;14.80;99.90
20698;DHT22;10508;50.956;4.640;2024-03-17T15:31:10;14.80;99.90
20698;DHT22;10508;50.956;4.640;2024-03-17T15:33:37;14.90;99.90
20698;DHT22;10508;50.956;4.640;2024-03-17T15:36:05;14.90;99.90
20698;DHT22;10508;50.956;4.640;2024-03-17T15:38:32;14.90;99.90
20698;DHT22;10508;50.956;4.640;2024-03-17T15:40:59;14.80;99.90
20698;DHT22;10508;50.956;4.640;2024-03-17T15:43:26;14.80;99.90
20698;DHT22;10508;50.956;4.640;2024-03-17T15:45:53;14.90;99.90
20698;DHT22;10508;50.956;4.640;2024-03-17T15:48:18;14.90;99.90
20698;DHT22;10508;50.956;4.640;2024-03-17T15:50:44;14.70;99.90
20698;DHT22;10508;50.956;4.640;2024-03-17T15:53:18;14.70;99.90
20698;DHT22;10508;50.956;4.640;2024-03-17T15:55:44;14.70;99.90